Time;durP1;ratioP1;P1;durP2;ratioP2;P2;SDS_P1;SDS_P2;PMS_P1;PMS_P2;Temp;Humidity;BMP_temperature;BMP_pressure;BME280_temperature;BME280_humidity;BME280_pressure;Samples;Min_cycle;Max_cycle;Signal;HPM_P1;HPM_P2
2022/01/15 00:02:22;;;;;;;39.63;17.77;;;;;;;-1.16;100.00;101728.16;5047600;28;20244;-57
2022/01/15 00:04:48;;;;;;;60.27;20.47;;;;;;;-1.14;100.00;101736.63;5053047;28;20193;-57
2022/01/15 00:07:13;;;;;;;79.67;22.00;;;;;;;-1.17;100.00;101731.50;5053223;28;20176;-57
2022/01/15 00:09:41;;;;;;;79.30;21.60;;;;;;;-1.08;100.00;101723.25;5053397;28;20336;-57
2022/01/15 00:12:07;;;;;;;56.80;21.37;;;;;;;-0.88;100.00;101721.09;5058865;28;20243;-59
2022/01/15 00:14:38;;;;;;;47.20;19.47;;;;;;;-1.10;100.00;101715.66;5052081;28;20279;-56
2022/01/15 00:17:08;;;;;;;48.73;20.10;;;;;;;-1.10;100.00;101722.34;5058770;28;20633;-57
2022/01/15 00:19:41;;;;;;;44.37;19.30;;;;;;;-1.09;100.00;101721.53;5051666;28;20549;-57
2022/01/15 00:22:18;;;;;;;52.80;21.17;;;;;;;-1.10;100.00;101724.88;5024109;28;20594;-59
2022/01/15 00:24:45;;;;;;;44.00;19.23;;;;;;;-1.04;100.00;101720.81;5032872;28;20216;-56
2022/01/15 00:27:11;;;;;;;40.77;20.00;;;;;;;-1.04;100.00;101717.44;5036963;28;20258;-58
2022/01/15 00:29:37;;;;;;;37.80;18.60;;;;;;;-1.09;100.00;101714.84;5057343;28;20217;-58
2022/01/15 00:32:05;;;;;;;48.93;19.57;;;;;;;-1.13;100.00;101713.03;5018280;28;20608;-57
2022/01/15 00:34:31;;;;;;;66.03;19.00;;;;;;;-1.15;100.00;101710.50;5046770;28;20673;-58
2022/01/15 00:36:56;;;;;;;47.53;18.33;;;;;;;-0.99;100.00;101718.41;5051356;28;20185;-57
2022/01/15 00:39:22;;;;;;;77.33;19.60;;;;;;;-0.90;100.00;101723.59;5048777;28;20183;-57
2022/01/15 00:41:48;;;;;;;52.87;19.23;;;;;;;-0.73;100.00;101721.41;5028691;28;20251;-58
2022/01/15 00:44:14;;;;;;;46.43;19.37;;;;;;;-0.93;100.00;101720.16;5049920;28;20689;-56
2022/01/15 00:46:39;;;;;;;96.37;22.47;;;;;;;-0.87;100.00;101721.16;5054132;28;20193;-58
2022/01/15 00:49:05;;;;;;;70.20;19.07;;;;;;;-0.87;100.00;101725.34;5072207;28;20169;-59
2022/01/15 00:51:30;;;;;;;78.27;20.83;;;;;;;-0.91;100.00;101724.44;5060654;28;20231;-57
2022/01/15 00:53:56;;;;;;;80.83;20.63;;;;;;;-1.03;100.00;101722.53;5071434;28;20255;-57
2022/01/15 00:56:21;;;;;;;49.23;18.83;;;;;;;-0.96;100.00;101707.50;5071875;28;20177;-58
2022/01/15 00:58:46;;;;;;;71.90;20.30;;;;;;;-0.91;100.00;101708.44;5047276;28;20948;-59
2022/01/15 01:01:12;;;;;;;40.80;17.97;;;;;;;-0.77;100.00;101704.50;5038209;28;20224;-57
2022/01/15 01:03:37;;;;;;;46.83;17.87;;;;;;;-0.91;100.00;101700.84;5037918;28;20182;-57
2022/01/15 01:06:02;;;;;;;56.53;21.10;;;;;;;-0.87;100.00;101708.53;5032059;28;20203;-60
2022/01/15 01:08:28;;;;;;;66.50;20.97;;;;;;;-0.98;100.00;101710.84;5031244;28;20770;-59
2022/01/15 01:10:57;;;;;;;67.00;18.27;;;;;;;-1.02;100.00;101708.22;5031102;28;20224;-59
2022/01/15 01:24:24;;;;;;;70.40;20.57;;;;;;;-1.02;100.00;101688.00;5050453;28;20196;-58
2022/01/15 01:27:00;;;;;;;46.37;19.50;;;;;;;-1.02;100.00;101688.88;5051347;28;20173;-58
2022/01/15 01:29:50;;;;;;;60.70;18.33;;;;;;;-0.99;100.00;101685.56;5057873;28;20185;-57
2022/01/15 01:32:45;;;;;;;53.67;20.07;;;;;;;-0.93;100.00;101692.38;5056388;28;20227;-59
2022/01/15 01:35:09;;;;;;;53.43;19.00;;;;;;;-0.90;100.00;101683.19;5043601;28;20200;-58
2022/01/15 01:37:39;;;;;;;62.30;20.33;;;;;;;-0.90;100.00;101679.81;5051379;28;20181;-57
2022/01/15 01:40:18;;;;;;;58.37;19.33;;;;;;;-0.91;100.00;101673.91;5040131;28;20260;-57
2022/01/15 01:42:53;;;;;;;45.37;19.33;;;;;;;-0.79;100.00;101680.84;5064477;28;20200;-58
2022/01/15 01:45:19;;;;;;;61.90;20.37;;;;;;;-0.83;100.00;101679.94;5050575;28;20291;-58
2022/01/15 01:47:44;;;;;;;56.10;19.33;;;;;;;-0.90;100.00;101683.19;5062134;28;20263;-57
2022/01/15 01:50:11;;;;;;;42.93;18.60;;;;;;;-0.88;100.00;101681.53;5060438;28;20180;-58
2022/01/15 01:52:37;;;;;;;49.17;18.80;;;;;;;-0.88;100.00;101688.25;5085343;28;20188;-57
2022/01/15 01:55:04;;;;;;;42.20;19.47;;;;;;;-0.86;100.00;101692.50;5070657;28;20173;-57
2022/01/15 01:57:29;;;;;;;43.17;17.47;;;;;;;-0.86;100.00;101689.97;5070817;28;20637;-59
2022/01/15 01:59:54;;;;;;;54.23;16.30;;;;;;;-0.88;100.00;101688.25;5049221;28;20184;-57
2022/01/15 02:02:20;;;;;;;48.13;17.53;;;;;;;-0.83;100.00;101687.53;5055856;28;20241;-58
2022/01/15 02:04:45;;;;;;;83.87;17.60;;;;;;;-0.90;100.00;101692.44;5050253;28;20204;-57
2022/01/15 02:07:10;;;;;;;58.93;17.50;;;;;;;-0.97;100.00;101676.31;5050838;28;20191;-59
2022/01/15 02:09:38;;;;;;;43.13;16.43;;;;;;;-0.88;100.00;101680.69;5050793;28;20263;-58
2022/01/15 02:12:04;;;;;;;39.90;17.77;;;;;;;-0.85;100.00;101681.59;5055765;28;20237;-58
2022/01/15 02:14:30;;;;;;;37.67;15.90;;;;;;;-0.85;100.00;101668.13;5050496;28;20630;-58
2022/01/15 02:16:57;;;;;;;50.20;17.60;;;;;;;-0.66;100.00;101667.63;5050753;28;20533;-59
2022/01/15 02:19:30;;;;;;;48.30;16.20;;;;;;;-0.80;100.00;101668.19;5050845;28;20183;-58
2022/01/15 02:24:39;;;;;;;37.00;16.43;;;;;;;-0.82;100.00;101656.38;5050575;28;20207;-59
2022/01/15 02:27:04;;;;;;;46.57;17.23;;;;;;;-0.66;100.00;101654.97;5054201;28;20553;-58
2022/01/15 02:29:29;;;;;;;57.03;18.80;;;;;;;-0.78;100.00;101657.31;5051560;28;20200;-59
2022/01/15 02:31:55;;;;;;;49.90;18.37;;;;;;;-0.79;100.00;101652.19;5055322;28;20637;-58
2022/01/15 02:34:20;;;;;;;64.50;18.70;;;;;;;-0.76;100.00;101654.78;5055229;28;20695;-58
2022/01/15 02:36:45;;;;;;;59.90;19.13;;;;;;;-0.81;100.00;101649.66;5054696;28;20178;-58
2022/01/15 02:39:11;;;;;;;84.57;20.60;;;;;;;-0.84;100.00;101654.66;5054441;28;20209;-59
2022/01/15 02:41:38;;;;;;;79.97;22.50;;;;;;;-0.83;100.00;101651.31;5045991;28;20251;-59
2022/01/15 02:44:06;;;;;;;48.47;21.03;;;;;;;-0.74;100.00;101648.09;5057289;28;20542;-58
2022/01/15 02:48:59;;;;;;;57.63;21.70;;;;;;;-0.69;100.00;101654.91;5049701;28;20178;-58
2022/01/15 02:51:28;;;;;;;53.27;21.60;;;;;;;-0.65;100.00;101648.25;5055056;28;20622;-58
2022/01/15 02:53:56;;;;;;;64.03;22.43;;;;;;;-0.59;100.00;101650.88;5046596;28;20216;-58
2022/01/15 02:56:27;;;;;;;54.13;22.13;;;;;;;-0.61;100.00;101647.44;5054250;28;20168;-59
2022/01/15 02:58:53;;;;;;;50.80;20.17;;;;;;;-0.56;100.00;101650.94;5053967;28;20174;-58
2022/01/15 03:01:18;;;;;;;49.77;20.07;;;;;;;-0.53;100.00;101652.66;5050576;28;20301;-59
2022/01/15 03:03:44;;;;;;;49.40;20.73;;;;;;;-0.44;100.00;101644.38;5058983;28;20276;-58
2022/01/15 03:06:11;;;;;;;55.63;23.30;;;;;;;-0.34;100.00;101643.69;5053943;28;20181;-58
2022/01/15 03:08:36;;;;;;;52.70;21.90;;;;;;;-0.47;100.00;101642.66;5054041;28;20174;-56
2022/01/15 03:11:02;;;;;;;66.17;22.97;;;;;;;-0.43;100.00;101639.31;5051647;28;20224;-56
2022/01/15 03:13:28;;;;;;;57.47;24.87;;;;;;;-0.53;100.00;101634.97;5061510;28;20200;-56
2022/01/15 03:15:53;;;;;;;61.37;24.47;;;;;;;-0.37;100.00;101634.38;5053880;28;20251;-56
2022/01/15 03:18:19;;;;;;;49.13;23.03;;;;;;;-0.33;100.00;101633.56;5053805;28;20181;-56
2022/01/15 03:20:44;;;;;;;53.03;23.47;;;;;;;-0.24;100.00;101625.28;5045385;28;20552;-57
2022/01/15 03:23:09;;;;;;;49.80;22.53;;;;;;;-0.23;100.00;101618.56;5063894;28;20216;-57
2022/01/15 03:25:35;;;;;;;52.77;22.63;;;;;;;-0.30;100.00;101617.59;5053545;28;20201;-58
2022/01/15 03:28:00;;;;;;;53.37;23.17;;;;;;;-0.27;100.00;101616.78;5053705;28;20204;-57
2022/01/15 03:30:25;;;;;;;50.40;21.40;;;;;;;-0.39;100.00;101615.78;5044661;28;20310;-58
2022/01/15 03:32:51;;;;;;;57.27;23.73;;;;;;;-0.23;100.00;101606.75;5062991;28;20263;-57
2022/01/15 03:35:17;;;;;;;58.70;23.87;;;;;;;-0.19;100.00;101608.50;5052754;28;20243;-58
2022/01/15 03:37:43;;;;;;;55.83;21.77;;;;;;;-0.28;100.00;101602.47;5051391;28;20185;-57
2022/01/15 03:40:11;;;;;;;62.57;24.40;;;;;;;-0.35;100.00;101598.97;5043758;28;20185;-58
2022/01/15 03:42:36;;;;;;;57.03;21.70;;;;;;;-0.38;100.00;101607.38;5067850;28;20204;-58
2022/01/15 03:45:03;;;;;;;79.93;24.60;;;;;;;-0.35;100.00;101602.38;5053225;28;20717;-58
2022/01/15 03:47:28;;;;;;;57.57;22.20;;;;;;;-0.39;100.00;101602.31;5062641;28;20229;-57
2022/01/15 03:49:53;;;;;;;55.90;22.97;;;;;;;-0.32;100.00;101596.50;5073660;28;20255;-58
2022/01/15 03:52:19;;;;;;;58.90;24.13;;;;;;;-0.26;100.00;101600.78;5080332;28;20281;-57
2022/01/15 03:54:45;;;;;;;54.70;21.60;;;;;;;-0.38;100.00;101596.44;5074702;28;20684;-58
2022/01/15 03:57:11;;;;;;;55.93;21.73;;;;;;;-0.40;100.00;101601.44;5073708;28;20173;-59
2022/01/15 03:59:36;;;;;;;56.77;24.50;;;;;;;-0.29;100.00;101598.22;5073371;28;20192;-58
2022/01/15 04:02:02;;;;;;;61.13;24.53;;;;;;;-0.39;100.00;101595.56;5052322;28;20699;-58
2022/01/15 04:04:27;;;;;;;59.23;24.67;;;;;;;-0.22;100.00;101594.97;5073684;28;20205;-59
2022/01/15 04:06:52;;;;;;;62.40;23.40;;;;;;;-0.08;100.00;101597.69;5073144;28;20168;-57
2022/01/15 04:09:18;;;;;;;59.03;23.00;;;;;;;-0.06;100.00;101593.50;5071695;28;20230;-58
2022/01/15 04:11:44;;;;;;;55.50;23.07;;;;;;;-0.14;100.00;101590.84;5075402;28;20226;-59
2022/01/15 04:14:10;;;;;;;52.83;22.13;;;;;;;-0.18;100.00;101584.91;5075019;28;20179;-58
2022/01/15 04:16:35;;;;;;;64.63;23.40;;;;;;;-0.13;100.00;101590.03;5074801;28;20601;-57
2022/01/15 04:19:01;;;;;;;59.57;24.03;;;;;;;-0.26;100.00;101586.50;5076136;28;20177;-58
2022/01/15 04:21:27;;;;;;;63.53;23.73;;;;;;;-0.13;100.00;101589.19;5073353;28;20232;-58
2022/01/15 04:23:53;;;;;;;55.80;22.70;;;;;;;-0.18;100.00;101587.44;5071148;28;20184;-58
2022/01/15 04:26:23;;;;;;;63.73;23.37;;;;;;;-0.14;100.00;101587.47;5072740;28;20183;-58
2022/01/15 04:28:50;;;;;;;75.50;24.47;;;;;;;-0.13;100.00;101587.50;5072542;28;20705;-59
2022/01/15 04:31:16;;;;;;;65.47;24.37;;;;;;;-0.24;100.00;101579.75;5031266;28;20673;-57
2022/01/15 04:33:42;;;;;;;61.40;24.50;;;;;;;-0.22;100.00;101583.16;5052370;28;20375;-58
2022/01/15 04:36:08;;;;;;;58.53;25.20;;;;;;;-0.08;100.00;101580.81;5052164;28;20288;-58
2022/01/15 04:38:37;;;;;;;61.47;25.80;;;;;;;-0.05;100.00;101583.41;5052359;28;20212;-59
2022/01/15 04:41:03;;;;;;;69.80;24.57;;;;;;;0.06;100.00;101577.63;5049770;28;20224;-59
2022/01/15 04:43:28;;;;;;;63.40;22.20;;;;;;;-0.14;100.00;101575.66;5059655;28;20700;-59
2022/01/15 04:45:54;;;;;;;70.70;24.00;;;;;;;-0.21;100.00;101569.69;5052043;28;20201;-57
2022/01/15 04:48:19;;;;;;;72.60;24.43;;;;;;;-0.18;100.00;101574.78;5051414;28;20287;-59
2022/01/15 04:50:45;;;;;;;80.93;27.10;;;;;;;-0.13;100.00;101559.66;5047343;28;20278;-59
2022/01/15 04:53:10;;;;;;;66.33;23.60;;;;;;;-0.07;100.00;101561.44;5061784;28;20188;-58
2022/01/15 04:55:36;;;;;;;62.07;23.90;;;;;;;-0.05;100.00;101560.63;5051781;28;20184;-59
2022/01/15 04:58:03;;;;;;;79.60;24.57;;;;;;;-0.02;100.00;101549.69;5051989;28;20307;-59
2022/01/15 05:00:29;;;;;;;71.50;25.67;;;;;;;-0.04;100.00;101549.69;5043402;28;20263;-59
2022/01/15 05:02:56;;;;;;;53.97;22.43;;;;;;;0.03;100.00;101550.59;5062282;28;20220;-58
2022/01/15 05:05:22;;;;;;;53.10;20.97;;;;;;;-0.09;100.00;101552.97;5051303;28;20201;-58
2022/01/15 05:07:47;;;;;;;56.77;21.87;;;;;;;-0.04;100.00;101557.28;5051743;28;20753;-58
2022/01/15 05:10:16;;;;;;;50.63;20.23;;;;;;;-0.09;100.00;101563.09;5042924;28;20732;-59
2022/01/15 05:12:44;;;;;;;49.17;19.30;;;;;;;-0.07;100.00;101561.44;5065094;28;20247;-59
2022/01/15 05:15:11;;;;;;;43.73;20.40;;;;;;;-0.07;100.00;101556.38;5051401;28;20618;-58
2022/01/15 05:17:37;;;;;;;45.10;19.87;;;;;;;-0.09;100.00;101553.81;5051856;28;20645;-59
2022/01/15 05:20:03;;;;;;;40.70;18.13;;;;;;;-0.12;100.00;101556.31;5050552;28;20185;-59
2022/01/15 05:22:28;;;;;;;44.83;19.60;;;;;;;-0.14;100.00;101554.59;5063681;28;20243;-59
2022/01/15 05:24:53;;;;;;;49.70;23.37;;;;;;;-0.08;100.00;101553.00;5051359;28;20664;-59
2022/01/15 05:27:19;;;;;;;42.83;20.50;;;;;;;-0.05;100.00;101547.97;5051426;28;20231;-63
2022/01/15 05:29:45;;;;;;;41.23;21.20;;;;;;;0.08;100.00;101550.66;5051549;28;20665;-58
2022/01/15 05:32:10;;;;;;;45.97;20.23;;;;;;;0.11;100.00;101554.09;5048306;28;20244;-59
2022/01/15 05:34:35;;;;;;;45.67;20.37;;;;;;;-0.03;100.00;101542.94;5048736;28;20556;-58
2022/01/15 05:37:01;;;;;;;44.00;22.37;;;;;;;0.05;100.00;101543.03;5051247;28;20563;-59
2022/01/15 05:39:27;;;;;;;47.80;20.53;;;;;;;0.22;100.00;101548.28;5051399;28;20174;-60
2022/01/15 05:41:53;;;;;;;53.43;22.57;;;;;;;0.23;100.00;101539.88;5055137;28;20239;-58
2022/01/15 05:44:18;;;;;;;51.70;22.50;;;;;;;0.18;100.00;101538.97;5052108;28;20209;-59
2022/01/15 05:46:45;;;;;;;43.60;19.60;;;;;;;0.18;100.00;101544.03;5051076;28;20667;-59
2022/01/15 05:49:10;;;;;;;51.60;20.03;;;;;;;0.09;100.00;101532.97;5051189;28;20216;-59
2022/01/15 05:51:35;;;;;;;52.93;20.17;;;;;;;0.06;100.00;101527.84;5052987;28;20267;-58
2022/01/15 05:54:03;;;;;;;41.60;18.77;;;;;;;0.00;100.00;101530.34;5054047;28;20201;-59
2022/01/15 05:56:29;;;;;;;33.53;17.27;;;;;;;0.05;100.00;101523.66;5050766;28;20211;-58
2022/01/15 05:58:54;;;;;;;46.03;19.40;;;;;;;0.04;100.00;101523.59;5050882;28;20208;-58
2022/01/15 06:01:21;;;;;;;43.13;18.20;;;;;;;0.09;100.00;101527.06;5050811;28;20693;-59
2022/01/15 06:03:47;;;;;;;41.23;18.53;;;;;;;0.03;100.00;101519.41;5066039;28;20188;-56
2022/01/15 06:06:12;;;;;;;36.70;18.43;;;;;;;0.07;100.00;101516.91;5050938;28;20169;-58
2022/01/15 06:08:37;;;;;;;44.47;19.50;;;;;;;0.12;100.00;101520.34;5050884;28;20177;-59
2022/01/15 06:11:03;;;;;;;48.27;20.73;;;;;;;0.14;100.00;101521.22;5048353;28;20314;-58
2022/01/15 06:13:28;;;;;;;44.17;19.27;;;;;;;0.24;100.00;101516.28;5058011;28;20294;-59
2022/01/15 06:15:54;;;;;;;41.00;18.93;;;;;;;0.21;100.00;101519.63;5050875;28;20169;-59
2022/01/15 06:18:19;;;;;;;34.07;17.57;;;;;;;0.16;100.00;101516.16;5050940;28;20311;-59
2022/01/15 06:20:44;;;;;;;35.30;17.13;;;;;;;0.19;100.00;101517.88;5046105;28;20236;-58
2022/01/15 06:23:10;;;;;;;35.20;17.60;;;;;;;0.09;100.00;101517.78;5060380;28;20216;-59
2022/01/15 06:25:35;;;;;;;32.90;17.00;;;;;;;0.15;100.00;101512.78;5050083;28;20197;-59
2022/01/15 06:28:00;;;;;;;39.07;18.60;;;;;;;0.44;100.00;101517.31;5050652;28;20231;-58
2022/01/15 06:30:26;;;;;;;34.57;17.83;;;;;;;0.40;100.00;101515.59;5042298;28;20228;-58
2022/01/15 06:32:51;;;;;;;28.83;17.27;;;;;;;0.19;100.00;101517.88;5062117;28;20197;-58
2022/01/15 06:35:17;;;;;;;33.77;18.77;;;;;;;0.27;100.00;101511.22;5049737;28;20185;-59
2022/01/15 06:37:44;;;;;;;31.60;17.87;;;;;;;0.23;100.00;101517.94;5050225;28;20184;-59
2022/01/15 06:40:10;;;;;;;28.20;16.93;;;;;;;0.27;100.00;101518.81;5041042;28;20234;-58
2022/01/15 06:42:36;;;;;;;28.20;16.80;;;;;;;0.35;100.00;101517.22;5064850;28;20835;-59
2022/01/15 06:45:02;;;;;;;32.80;18.67;;;;;;;0.40;100.00;101518.13;5050146;28;20205;-59
2022/01/15 06:47:27;;;;;;;30.43;18.00;;;;;;;0.29;100.00;101517.16;5050773;28;20201;-59
2022/01/15 06:49:52;;;;;;;31.17;18.33;;;;;;;0.41;100.00;101513.88;5050912;28;20658;-59
2022/01/15 06:52:20;;;;;;;26.23;16.63;;;;;;;0.47;100.00;101517.34;5056353;28;20232;-58
2022/01/15 06:54:45;;;;;;;26.33;17.07;;;;;;;0.50;100.00;101516.53;5050433;28;20166;-59
2022/01/15 06:57:11;;;;;;;26.47;16.40;;;;;;;0.56;100.00;101513.19;5050356;28;20189;-57
2022/01/15 06:59:36;;;;;;;24.77;14.80;;;;;;;0.51;100.00;101509.78;5050622;28;20520;-58
2022/01/15 07:02:05;;;;;;;22.23;14.23;;;;;;;0.50;100.00;101511.47;5055357;28;20685;-57
2022/01/15 07:04:31;;;;;;;26.33;16.80;;;;;;;0.41;100.00;101514.75;5049957;28;20190;-59
2022/01/15 07:06:56;;;;;;;23.57;15.80;;;;;;;0.54;100.00;101513.19;5050428;28;20311;-59
2022/01/15 07:09:22;;;;;;;25.50;14.50;;;;;;;0.37;100.00;101514.72;5050801;28;20170;-59
2022/01/15 07:11:47;;;;;;;21.63;14.13;;;;;;;0.36;100.00;101511.34;5054983;28;20240;-58
2022/01/15 07:14:13;;;;;;;20.07;13.57;;;;;;;0.32;100.00;101517.19;5055621;28;20212;-59
2022/01/15 07:16:38;;;;;;;22.50;13.90;;;;;;;0.34;100.00;101502.03;5053975;28;20228;-58
2022/01/15 07:19:04;;;;;;;23.23;16.13;;;;;;;0.47;100.00;101499.63;5053968;28;20598;-58
2022/01/15 07:21:29;;;;;;;21.87;15.30;;;;;;;0.46;100.00;101497.94;5054745;28;20232;-58
2022/01/15 07:23:55;;;;;;;27.97;15.10;;;;;;;0.44;100.00;101491.16;5057753;28;20176;-59
2022/01/15 07:26:20;;;;;;;26.13;15.63;;;;;;;0.39;100.00;101492.78;5053794;28;20265;-58
2022/01/15 07:28:45;;;;;;;23.73;15.10;;;;;;;0.50;100.00;101498.81;5055261;28;20201;-58
2022/01/15 07:31:11;;;;;;;23.63;16.03;;;;;;;0.53;100.00;101498.81;5052246;28;20236;-58
2022/01/15 07:33:36;;;;;;;23.23;14.23;;;;;;;0.47;100.00;101496.22;5059838;28;20675;-59
2022/01/15 07:36:02;;;;;;;22.73;15.60;;;;;;;0.51;100.00;101497.13;5053568;28;20208;-59
2022/01/15 07:38:27;;;;;;;22.20;14.63;;;;;;;0.52;100.00;101494.63;5053594;28;20264;-59
2022/01/15 07:40:55;;;;;;;23.53;14.47;;;;;;;0.46;100.00;101500.47;5049611;28;20220;-59
2022/01/15 07:43:21;;;;;;;20.53;14.07;;;;;;;0.47;100.00;101494.56;5052039;28;20169;-57
2022/01/15 07:45:46;;;;;;;20.23;14.13;;;;;;;0.43;100.00;101502.09;5053955;28;20259;-58
2022/01/15 07:48:12;;;;;;;21.70;15.00;;;;;;;0.56;100.00;101501.41;5068324;28;20196;-59
2022/01/15 07:50:37;;;;;;;21.33;14.80;;;;;;;0.46;100.00;101497.09;5067504;28;20321;-59
2022/01/15 07:53:02;;;;;;;17.60;12.97;;;;;;;0.44;100.00;101498.75;5083962;28;20566;-58
2022/01/15 07:55:28;;;;;;;19.80;14.03;;;;;;;0.44;100.00;101503.81;5072867;28;20252;-59
2022/01/15 07:57:53;;;;;;;22.33;15.03;;;;;;;0.53;100.00;101501.34;5073238;28;20176;-58
2022/01/15 08:00:19;;;;;;;18.90;13.87;;;;;;;0.44;100.00;101498.75;5051227;28;20175;-59
2022/01/15 08:02:45;;;;;;;22.57;16.00;;;;;;;0.51;100.00;101509.78;5072035;28;20189;-58
2022/01/15 08:05:12;;;;;;;18.03;14.07;;;;;;;0.53;100.00;101501.34;5052996;28;20220;-58
2022/01/15 08:07:38;;;;;;;18.60;14.30;;;;;;;0.56;100.00;101508.13;5052192;28;21431;-59
2022/01/15 08:10:06;;;;;;;17.60;14.50;;;;;;;0.50;100.00;101501.34;5037786;28;20177;-58
2022/01/15 08:12:32;;;;;;;21.53;14.93;;;;;;;0.50;100.00;101503.00;5068206;28;20549;-59
2022/01/15 08:14:57;;;;;;;17.87;13.77;;;;;;;0.52;100.00;101504.75;5053851;28;20244;-59
2022/01/15 08:17:23;;;;;;;16.67;12.40;;;;;;;0.53;100.00;101503.06;5041881;28;20743;-59
2022/01/15 08:19:49;;;;;;;14.77;11.90;;;;;;;0.52;100.00;101503.88;5053325;28;20177;-58
2022/01/15 08:22:14;;;;;;;13.40;10.93;;;;;;;0.38;100.00;101497.00;5039954;28;20228;-58
2022/01/15 08:24:39;;;;;;;13.87;11.40;;;;;;;0.46;100.00;101502.16;5051187;28;20205;-57
2022/01/15 08:27:05;;;;;;;19.50;13.87;;;;;;;0.42;100.00;101493.69;5052384;28;20177;-57
2022/01/15 08:29:31;;;;;;;17.37;13.00;;;;;;;0.47;100.00;101499.63;5053119;28;20181;-58
2022/01/15 08:31:56;;;;;;;15.97;11.33;;;;;;;0.39;100.00;101501.22;5037409;28;20312;-57
2022/01/15 08:34:22;;;;;;;16.13;13.27;;;;;;;0.42;100.00;101491.16;5053068;28;20166;-58
2022/01/15 08:36:48;;;;;;;17.07;13.80;;;;;;;0.52;100.00;101491.22;5052696;28;20184;-57
2022/01/15 08:39:17;;;;;;;17.63;11.97;;;;;;;0.52;100.00;101489.56;5049956;28;20192;-58
2022/01/15 08:41:48;;;;;;;14.23;10.77;;;;;;;0.52;100.00;101497.16;5036051;28;20228;-57
2022/01/15 08:44:14;;;;;;;15.53;11.20;;;;;;;0.53;100.00;101492.91;5054170;28;20193;-58
2022/01/15 08:46:42;;;;;;;19.93;11.30;;;;;;;0.45;100.00;101493.69;5054282;28;20288;-59
2022/01/15 08:49:08;;;;;;;15.53;11.97;;;;;;;0.48;100.00;101492.88;5063060;28;20667;-57
2022/01/15 08:51:33;;;;;;;15.73;10.73;;;;;;;0.47;100.00;101491.16;5051358;28;20232;-57
2022/01/15 08:53:58;;;;;;;14.77;10.83;;;;;;;0.51;100.00;101495.44;5056218;28;20190;-58
2022/01/15 08:56:24;;;;;;;13.53;10.43;;;;;;;0.50;100.00;101491.22;5052566;28;20181;-58
2022/01/15 08:58:49;;;;;;;12.70;9.83;;;;;;;0.56;100.00;101487.88;5067302;28;20277;-57
2022/01/15 09:01:15;;;;;;;10.67;8.20;;;;;;;0.52;100.00;101486.16;5048015;28;20244;-58
2022/01/15 09:03:41;;;;;;;11.93;9.20;;;;;;;0.67;100.00;101487.97;5044629;28;20269;-58
2022/01/15 09:06:13;;;;;;;10.13;8.40;;;;;;;0.67;100.00;101488.84;5042997;28;20249;-59
2022/01/15 09:08:39;;;;;;;10.87;8.90;;;;;;;0.77;100.00;101488.06;5052368;28;20208;-59
2022/01/15 09:11:06;;;;;;;12.03;8.67;;;;;;;0.82;100.00;101482.19;5049923;28;20681;-57
2022/01/15 09:13:31;;;;;;;9.77;7.67;;;;;;;0.74;100.00;101484.66;5060090;28;20181;-60
2022/01/15 09:15:57;;;;;;;9.50;7.77;;;;;;;0.65;100.00;101487.97;5052954;28;20291;-58
2022/01/15 09:18:22;;;;;;;7.37;6.57;;;;;;;0.63;100.00;101480.38;5052664;28;20173;-57
2022/01/15 09:20:48;;;;;;;11.67;7.73;;;;;;;0.64;100.00;101486.25;5048151;28;20689;-60
2022/01/15 09:23:14;;;;;;;9.03;8.13;;;;;;;0.71;100.00;101480.44;5061887;28;20185;-57
2022/01/15 09:25:40;;;;;;;10.73;8.17;;;;;;;0.71;100.00;101477.03;5067711;28;20216;-59
2022/01/15 09:30:50;;;;;;;9.70;7.20;;;;;;;0.64;100.00;101471.06;5047413;28;20619;-58
2022/01/15 09:33:16;;;;;;;7.10;6.37;;;;;;;0.58;100.00;101478.63;5066727;28;20260;-59
2022/01/15 09:35:41;;;;;;;9.20;6.97;;;;;;;0.67;100.00;101475.31;5050816;28;20268;-59
2022/01/15 09:38:07;;;;;;;9.07;8.07;;;;;;;0.82;100.00;101472.06;5051829;28;20253;-57
2022/01/15 09:40:33;;;;;;;9.60;7.67;;;;;;;0.82;100.00;101472.06;5044940;28;20224;-57
2022/01/15 09:43:00;;;;;;;8.90;7.03;;;;;;;0.82;100.00;101467.84;5046465;28;20193;-58
2022/01/15 09:45:26;;;;;;;11.13;7.73;;;;;;;0.77;100.00;101469.47;5051249;28;20201;-58
2022/01/15 09:47:58;;;;;;;9.93;8.23;;;;;;;0.83;100.00;101466.16;5063621;28;20241;-57
2022/01/15 09:50:26;;;;;;;10.77;8.63;;;;;;;0.95;100.00;101471.31;5063751;28;20232;-58
2022/01/15 09:52:54;;;;;;;11.30;8.23;;;;;;;0.86;100.00;101461.97;5084239;28;20612;-58
2022/01/15 09:55:21;;;;;;;9.17;8.17;;;;;;;0.84;100.00;101460.25;5071769;28;20176;-59
2022/01/15 09:57:47;;;;;;;10.07;8.43;;;;;;;0.94;100.00;101467.09;5062932;28;20173;-59
2022/01/15 10:00:15;;;;;;;10.43;8.13;;;;;;;0.96;100.00;101457.81;5042623;28;20188;-58
2022/01/15 10:02:42;;;;;;;9.13;7.87;;;;;;;0.92;100.00;101458.66;5064708;28;20195;-58
2022/01/15 10:05:09;;;;;;;8.63;7.20;;;;;;;0.87;100.00;101452.66;5050814;28;20323;-59
2022/01/15 10:07:34;;;;;;;8.17;6.87;;;;;;;0.79;100.00;101450.09;5066466;28;20185;-59
2022/01/15 10:10:15;;;;;;;10.80;7.50;;;;;;;0.80;100.00;101450.09;5051589;28;20869;-59
2022/01/15 10:12:42;;;;;;;10.70;8.97;;;;;;;1.01;100.00;101446.03;5039758;28;20228;-59
2022/01/15 10:15:09;;;;;;;11.60;8.80;;;;;;;1.11;100.00;101441.88;5051900;28;20234;-57
2022/01/15 10:17:36;;;;;;;9.80;8.20;;;;;;;1.23;100.00;101428.44;5051084;28;20174;-56
2022/01/15 10:20:06;;;;;;;10.10;8.00;;;;;;;1.20;100.00;101436.00;5048459;28;20177;-59
2022/01/15 10:22:33;;;;;;;7.73;6.87;;;;;;;1.15;100.00;101432.59;5066743;28;20232;-58
2022/01/15 10:25:07;;;;;;;9.03;8.13;;;;;;;1.16;100.00;101434.28;5051696;28;20276;-58
2022/01/15 10:27:38;;;;;;;9.47;7.93;;;;;;;1.20;100.00;101436.00;5054212;28;20166;-59
2022/01/15 10:30:36;;;;;;;10.07;8.33;;;;;;;1.28;100.00;101432.66;5042399;28;20249;-58
2022/01/15 10:33:06;;;;;;;10.63;9.23;;;;;;;1.43;100.00;101429.34;5048570;28;20216;-58
2022/01/15 10:35:35;;;;;;;10.43;7.83;;;;;;;1.30;100.00;101425.06;5050633;28;20558;-59
2022/01/15 10:38:15;;;;;;;9.33;7.07;;;;;;;1.37;100.00;101426.78;5049434;28;20224;-59
2022/01/15 10:40:53;;;;;;;9.03;8.00;;;;;;;1.17;100.00;101414.03;5045531;28;20284;-57
2022/01/15 10:43:20;;;;;;;9.87;7.50;;;;;;;1.15;100.00;101425.00;5048917;28;20501;-58
2022/01/15 10:45:57;;;;;;;9.00;7.67;;;;;;;1.19;100.00;101419.97;5065264;28;20216;-58
2022/01/15 10:48:31;;;;;;;9.83;7.60;;;;;;;1.22;100.00;101412.34;5053986;28;20239;-60
2022/01/15 10:51:03;;;;;;;9.30;7.43;;;;;;;1.20;100.00;101408.13;5051403;28;20338;-60
2022/01/15 10:53:39;;;;;;;7.80;7.00;;;;;;;1.14;100.00;101403.84;5067063;28;20184;-59
2022/01/15 10:56:06;;;;;;;9.30;7.70;;;;;;;1.13;100.00;101400.47;5055088;28;20220;-60
2022/01/15 10:58:31;;;;;;;10.30;8.17;;;;;;;1.19;100.00;101399.69;5055066;28;20661;-59
2022/01/15 11:00:57;;;;;;;9.17;8.00;;;;;;;1.32;100.00;101397.22;5050408;28;20225;-58
2022/01/15 11:03:25;;;;;;;9.03;7.77;;;;;;;1.19;100.00;101393.75;5068589;28;20197;-58
2022/01/15 11:05:52;;;;;;;12.03;9.10;;;;;;;1.25;100.00;101388.69;5041152;28;20213;-59
2022/01/15 11:08:23;;;;;;;10.77;8.47;;;;;;;1.39;100.00;101388.75;5036627;28;20186;-58
2022/01/15 11:10:55;;;;;;;12.87;9.63;;;;;;;1.42;100.00;101383.72;5047998;28;20225;-58
2022/01/15 11:13:30;;;;;;;11.83;10.20;;;;;;;1.47;100.00;101381.22;5058325;28;20268;-58
2022/01/15 11:16:01;;;;;;;11.43;7.20;;;;;;;1.36;100.00;101383.69;5039574;28;20272;-59
2022/01/15 11:18:32;;;;;;;10.43;9.30;;;;;;;1.24;100.00;101374.34;5056928;28;20206;-60
2022/01/15 11:21:02;;;;;;;10.23;9.23;;;;;;;1.26;100.00;101370.13;5031623;28;20233;-58
2022/01/15 11:23:30;;;;;;;11.47;8.80;;;;;;;1.16;100.00;101371.78;5061585;28;20593;-57
2022/01/15 11:25:58;;;;;;;10.80;9.37;;;;;;;1.28;100.00;101361.69;5064589;28;20204;-58
2022/01/15 11:28:26;;;;;;;11.63;9.63;;;;;;;1.38;100.00;101365.09;5062436;28;20193;-60